Time;durP1;ratioP1;P1;durP2;ratioP2;P2;SDS_P1;SDS_P2;PMS_P1;PMS_P2;Temp;Humidity;BMP_temperature;BMP_pressure;BME280_temperature;BME280_humidity;BME280_pressure;Samples;Min_cycle;Max_cycle;Signal;HPM_P1;HPM_P2
2023/10/09 00:01:50;;;;;;;1.38;1.23;;;;;;;6.01;66.37;100931.22;5086841;28;20024;-61
2023/10/09 00:04:16;;;;;;;1.08;1.02;;;;;;;6.10;65.83;100942.56;5104677;28;20548;-62
2023/10/09 00:06:42;;;;;;;0.77;0.68;;;;;;;6.13;66.16;100932.31;5105038;28;20028;-61
2023/10/09 00:11:49;;;;;;;0.70;0.70;;;;;;;6.14;66.11;100922.03;5108963;28;20024;-62
2023/10/09 00:14:18;;;;;;;0.82;0.57;;;;;;;6.17;66.10;100911.78;5108820;28;20272;-62
2023/10/09 00:16:47;;;;;;;0.50;0.50;;;;;;;6.20;66.24;100905.78;5109106;28;20055;-62
2023/10/09 00:21:44;;;;;;;;;;;;;;;6.32;66.19;100887.09;5109449;28;20020;-61
2023/10/09 00:24:13;;;;;;;0.45;0.43;;;;;;;6.29;65.90;100884.47;5108731;28;19965;-62
2023/10/09 00:26:46;;;;;;;0.60;0.60;;;;;;;6.30;65.88;100883.63;5108664;28;20019;-62
2023/10/09 00:29:21;;;;;;;0.47;0.47;;;;;;;6.29;66.07;100871.59;5108622;28;20282;-61
2023/10/09 00:31:51;;;;;;;0.88;0.70;;;;;;;6.11;66.06;100846.34;5108456;28;20024;-62
2023/10/09 00:34:21;;;;;;;1.15;0.73;;;;;;;6.23;66.30;100863.75;5108266;28;20019;-63
2023/10/09 00:36:52;;;;;;;0.52;0.52;;;;;;;6.22;66.24;100865.44;5108408;28;20015;-62
2023/10/09 00:42:00;;;;;;;0.50;0.50;;;;;;;6.30;66.30;100852.69;5108215;28;20040;-61
2023/10/09 00:44:37;;;;;;;0.60;0.60;;;;;;;6.31;66.22;100841.53;5108257;28;20259;-61
2023/10/09 00:47:10;;;;;;;0.85;0.70;;;;;;;6.36;65.98;100836.47;5107824;28;20079;-59
2023/10/09 00:49:41;;;;;;;1.25;0.60;;;;;;;6.35;65.99;100835.56;5108104;28;20028;-62
2023/10/09 00:52:17;;;;;;;0.50;0.50;;;;;;;6.35;65.94;100834.69;5108209;28;20099;-61
2023/10/09 00:54:44;;;;;;;0.93;0.80;;;;;;;6.38;65.90;100827.00;5108031;28;20684;-62
2023/10/09 00:57:13;;;;;;;0.50;0.50;;;;;;;6.38;65.89;100822.72;5108040;28;20494;-61
2023/10/09 00:59:42;;;;;;;0.77;0.77;;;;;;;6.39;65.73;100827.03;5107822;28;20103;-60
2023/10/09 01:02:08;;;;;;;0.60;0.60;;;;;;;6.40;65.71;100826.22;5107640;28;20031;-61
2023/10/09 01:04:40;;;;;;;1.08;0.98;;;;;;;6.43;65.61;100828.84;5107900;28;20028;-61
2023/10/09 01:07:15;;;;;;;2.50;1.50;;;;;;;6.38;65.65;100808.97;5107904;28;20020;-62
2023/10/09 01:09:44;;;;;;;2.33;0.80;;;;;;;6.49;65.94;100829.75;5107542;28;20360;-61
2023/10/09 01:12:16;;;;;;;0.50;0.50;;;;;;;6.56;66.09;100823.84;5107492;28;20031;-61
2023/10/09 01:14:46;;;;;;;0.50;0.50;;;;;;;6.63;66.05;100815.34;5089451;28;20024;-62
2023/10/09 01:17:18;;;;;;;0.40;0.40;;;;;;;6.68;66.20;100807.69;5107283;28;20028;-60
2023/10/09 01:19:44;;;;;;;0.50;0.50;;;;;;;6.73;66.25;100806.03;5107684;28;20422;-61
2023/10/09 01:22:12;;;;;;;0.50;0.50;;;;;;;6.65;66.41;100792.16;5107135;28;20023;-62
2023/10/09 01:24:39;;;;;;;1.20;0.60;;;;;;;6.72;66.35;100796.56;5107336;28;20039;-61
2023/10/09 01:27:12;;;;;;;0.32;0.32;;;;;;;6.75;66.41;100795.72;5107333;28;20150;-62
2023/10/09 01:29:41;;;;;;;3.13;1.42;;;;;;;6.78;66.53;100782.88;5107332;28;20031;-61
2023/10/09 01:32:09;;;;;;;0.45;0.45;;;;;;;6.84;66.63;100780.38;5107235;28;20028;-60
2023/10/09 01:34:45;;;;;;;1.58;0.73;;;;;;;6.86;66.77;100778.69;5107155;28;20102;-61
2023/10/09 01:37:18;;;;;;;0.70;0.70;;;;;;;6.89;66.66;100781.31;5106997;28;20494;-62
2023/10/09 01:39:48;;;;;;;0.63;0.60;;;;;;;6.85;66.53;100782.13;5106975;28;20059;-60
2023/10/09 01:42:23;;;;;;;0.40;0.40;;;;;;;6.78;66.51;100780.28;5107151;28;20042;-62
2023/10/09 01:44:48;;;;;;;0.70;0.70;;;;;;;6.70;66.69;100777.59;5107030;28;20046;-62
2023/10/09 01:47:14;;;;;;;0.47;0.47;;;;;;;6.64;66.94;100768.09;5106889;28;20076;-61
2023/10/09 01:49:43;;;;;;;0.50;0.50;;;;;;;6.58;67.16;100760.25;5107013;28;20023;-62
2023/10/09 01:52:09;;;;;;;0.50;0.50;;;;;;;6.51;67.20;100759.31;5107021;28;20255;-61
2023/10/09 01:54:36;;;;;;;0.50;0.50;;;;;;;6.42;67.22;100754.88;5106916;28;20484;-61
2023/10/09 01:57:05;;;;;;;1.00;0.95;;;;;;;6.30;67.41;100752.13;5106922;28;20396;-62
2023/10/09 01:59:32;;;;;;;1.25;1.08;;;;;;;6.23;67.50;100758.88;5106846;28;20036;-61
2023/10/09 02:02:11;;;;;;;0.40;0.40;;;;;;;6.16;67.83;100763.09;5107028;28;20016;-61
2023/10/09 02:04:37;;;;;;;0.40;0.40;;;;;;;6.11;67.95;100754.41;5106753;28;20023;-61
2023/10/09 02:07:06;;;;;;;0.68;0.68;;;;;;;6.03;68.16;100754.28;5106683;28;20044;-62
2023/10/09 02:09:32;;;;;;;0.43;0.43;;;;;;;6.01;68.46;100755.94;5106543;28;20028;-61
2023/10/09 02:11:57;;;;;;;0.38;0.38;;;;;;;6.03;68.52;100743.97;5106506;28;20035;-61
2023/10/09 02:14:24;;;;;;;0.50;0.50;;;;;;;6.05;68.70;100742.28;5106331;28;20023;-61
2023/10/09 02:17:17;;;;;;;1.85;0.75;;;;;;;6.11;68.65;100751.84;5106466;28;20060;-61
2023/10/09 02:19:35;;;;;;;0.63;0.60;;;;;;;6.12;68.38;100737.25;5105677;28;20131;-62
2023/10/09 02:22:12;;;;;;;3.80;1.15;;;;;;;6.12;68.38;100735.53;5106403;28;20016;-61
2023/10/09 02:24:50;;;;;;;0.88;0.70;;;;;;;6.15;68.30;100732.13;5106167;28;20028;-61
2023/10/09 02:30:08;;;;;;;0.70;0.70;;;;;;;6.16;68.24;100736.44;5106248;28;20112;-61
2023/10/09 02:32:33;;;;;;;0.60;0.60;;;;;;;6.19;68.38;100728.75;5105392;28;20054;-61
2023/10/09 02:35:09;;;;;;;1.58;0.68;;;;;;;6.18;68.46;100727.88;5105931;28;20032;-61
2023/10/09 02:37:37;;;;;;;0.50;0.50;;;;;;;6.22;68.46;100722.75;5106131;28;20020;-62
2023/10/09 02:40:08;;;;;;;0.57;0.57;;;;;;;6.23;68.28;100714.19;5105680;28;20135;-62
2023/10/09 02:42:34;;;;;;;0.68;0.55;;;;;;;6.20;68.71;100710.72;5105873;28;20023;-62
2023/10/09 02:45:00;;;;;;;0.40;0.40;;;;;;;6.23;68.91;100711.63;5105929;28;20095;-62
2023/10/09 02:47:37;;;;;;;1.48;1.20;;;;;;;6.25;68.96;100702.19;5105481;28;20027;-60
2023/10/09 02:50:08;;;;;;;0.40;0.40;;;;;;;6.26;69.17;100704.78;5105618;28;20043;-63
2023/10/09 02:52:40;;;;;;;13.20;1.67;;;;;;;6.25;69.39;100697.91;5105725;28;20024;-62
2023/10/09 02:55:13;;;;;;;0.50;0.50;;;;;;;6.25;69.35;100697.03;5087421;28;20091;-62
2023/10/09 02:57:41;;;;;;;0.55;0.55;;;;;;;6.18;69.37;100694.34;5087554;28;20020;-62
2023/10/09 03:00:18;;;;;;;0.75;0.70;;;;;;;6.13;69.48;100693.44;5105429;28;20016;-61
2023/10/09 03:02:46;;;;;;;0.63;0.63;;;;;;;6.05;69.59;100679.56;5105472;28;20016;-61
2023/10/09 03:05:11;;;;;;;9.20;1.10;;;;;;;6.12;69.51;100696.00;5105736;28;20031;-62
2023/10/09 03:07:37;;;;;;;0.70;0.70;;;;;;;6.10;69.54;100695.09;5105522;28;20024;-62
2023/10/09 03:10:09;;;;;;;0.60;0.60;;;;;;;6.09;69.54;100695.97;5105144;28;20031;-61
2023/10/09 03:12:34;;;;;;;0.50;0.50;;;;;;;6.06;69.56;100696.75;5105535;28;20024;-61
2023/10/09 03:15:02;;;;;;;1.23;1.13;;;;;;;6.12;69.63;100690.84;5105357;28;20047;-61
2023/10/09 03:17:27;;;;;;;0.85;0.70;;;;;;;6.15;69.45;100691.72;5105042;28;20109;-63
2023/10/09 03:19:53;;;;;;;0.50;0.50;;;;;;;6.19;69.53;100688.38;5105268;28;20476;-62
2023/10/09 03:22:19;;;;;;;0.57;0.57;;;;;;;6.23;69.60;100678.09;5105164;28;20042;-61
2023/10/09 03:24:49;;;;;;;0.50;0.50;;;;;;;6.24;69.49;100675.56;5105147;28;20353;-61
2023/10/09 03:27:15;;;;;;;1.13;0.98;;;;;;;6.35;69.68;100670.53;5105291;28;20107;-61
2023/10/09 03:29:41;;;;;;;1.40;0.90;;;;;;;6.41;69.76;100657.72;5105070;28;20087;-61
2023/10/09 03:32:07;;;;;;;1.15;1.15;;;;;;;6.48;69.40;100652.63;5105459;28;20095;-62
2023/10/09 03:34:32;;;;;;;0.60;0.60;;;;;;;6.50;69.62;100640.63;5105046;28;20573;-61
2023/10/09 03:37:03;;;;;;;0.73;0.73;;;;;;;6.54;69.49;100638.09;5086890;28;20099;-62
2023/10/09 03:39:41;;;;;;;0.60;0.60;;;;;;;6.53;69.52;100623.44;5105119;28;20031;-61
2023/10/09 03:42:11;;;;;;;0.40;0.40;;;;;;;6.50;69.53;100630.31;5104844;28;20040;-61
2023/10/09 03:44:41;;;;;;;0.90;0.73;;;;;;;6.50;69.44;100641.47;5088785;28;20020;-61
2023/10/09 03:47:09;;;;;;;1.45;1.35;;;;;;;6.45;69.62;100638.84;5109401;28;20103;-62
2023/10/09 03:49:39;;;;;;;2.00;0.80;;;;;;;6.49;69.52;100628.56;5108994;28;20547;-60
2023/10/09 03:52:06;;;;;;;1.48;1.05;;;;;;;6.50;69.63;100620.00;5109212;28;20024;-61
2023/10/09 03:54:34;;;;;;;0.45;0.43;;;;;;;6.55;69.79;100623.50;5109319;28;20031;-62
2023/10/09 03:57:00;;;;;;;2.22;1.05;;;;;;;6.60;69.63;100624.41;5109245;28;20197;-61
2023/10/09 03:59:30;;;;;;;0.50;0.50;;;;;;;6.63;69.56;100621.84;5109020;28;20020;-60
2023/10/09 04:01:57;;;;;;;1.02;0.80;;;;;;;6.64;69.48;100613.28;5109013;28;20032;-62
2023/10/09 04:04:23;;;;;;;0.40;0.40;;;;;;;6.69;69.24;100614.19;5108654;28;20039;-62
2023/10/09 04:06:48;;;;;;;0.57;0.57;;;;;;;6.70;69.05;100607.31;5108833;28;20115;-61
2023/10/09 04:14:47;;;;;;;0.57;0.57;;;;;;;6.62;68.57;100614.09;5109161;28;20024;-61
2023/10/09 04:22:38;;;;;;;1.02;0.90;;;;;;;6.59;68.44;100635.56;5108512;28;20051;-62
2023/10/09 04:25:07;;;;;;;1.20;0.85;;;;;;;6.54;68.24;100634.66;5108819;28;20020;-61
2023/10/09 04:27:36;;;;;;;1.23;1.02;;;;;;;6.47;68.20;100645.75;5108660;28;20030;-61
2023/10/09 04:30:02;;;;;;;1.45;1.02;;;;;;;6.40;68.27;100643.09;5108485;28;20031;-61
2023/10/09 04:32:27;;;;;;;0.98;0.88;;;;;;;6.34;68.19;100639.56;5089800;28;20016;-61
2023/10/09 04:35:19;;;;;;;1.33;0.50;;;;;;;6.28;68.16;100645.50;5108475;28;20020;-61
2023/10/09 04:37:44;;;;;;;0.50;0.50;;;;;;;6.24;68.06;100648.88;5108140;28;20028;-62
2023/10/09 04:40:14;;;;;;;0.60;0.60;;;;;;;6.24;68.24;100648.88;5108230;28;20032;-62
2023/10/09 04:42:46;;;;;;;1.30;0.95;;;;;;;6.14;68.50;100625.56;5108246;28;20471;-61
2023/10/09 04:47:49;;;;;;;0.73;0.73;;;;;;;6.20;68.23;100645.41;5107948;28;20028;-61
2023/10/09 05:02:56;;;;;;;0.95;0.70;;;;;;;6.54;68.79;100634.66;5107601;28;20027;-61
2023/10/09 05:08:46;;;;;;;0.73;0.73;;;;;;;6.76;68.65;100629.72;5092743;28;20032;-61
2023/10/09 05:16:13;;;;;;;0.60;0.60;;;;;;;6.87;67.92;100643.63;5107930;28;20110;-62
2023/10/09 05:18:41;;;;;;;0.77;0.77;;;;;;;6.89;68.10;100631.59;5107467;28;20020;-61
2023/10/09 05:23:48;;;;;;;1.27;0.73;;;;;;;6.88;67.88;100629.00;5107593;28;20024;-62
2023/10/09 05:26:37;;;;;;;1.77;0.90;;;;;;;6.87;67.62;100630.72;5107574;28;20039;-62
2023/10/09 05:29:19;;;;;;;0.60;0.60;;;;;;;6.84;67.66;100627.25;5107410;28;20020;-62
2023/10/09 05:34:33;;;;;;;0.93;0.88;;;;;;;6.78;67.59;100628.03;5107188;28;20024;-61
2023/10/09 05:37:17;;;;;;;2.92;1.15;;;;;;;6.78;67.52;100616.00;5107392;28;20023;-62
2023/10/09 05:40:11;;;;;;;0.60;0.60;;;;;;;6.77;67.63;100611.69;5106983;28;20023;-62
2023/10/09 05:42:42;;;;;;;0.80;0.80;;;;;;;6.80;67.46;100618.59;5107017;28;20420;-61
2023/10/09 05:47:53;;;;;;;8.93;1.20;;;;;;;6.91;67.70;100621.28;5107150;28;20024;-62
2023/10/09 06:03:25;;;;;;;1.40;0.90;;;;;;;7.18;67.42;100619.81;5106469;28;20085;-62
2023/10/09 06:08:26;;;;;;;1.30;1.20;;;;;;;7.26;67.76;100612.16;5105851;28;20476;-62
2023/10/09 06:11:06;;;;;;;0.88;0.88;;;;;;;7.32;67.71;100612.19;5106131;28;20431;-63
2023/10/09 06:13:37;;;;;;;1.10;1.00;;;;;;;7.40;67.63;100613.13;5106865;28;20101;-62
2023/10/09 06:16:19;;;;;;;1.40;1.15;;;;;;;7.49;67.65;100614.06;5106570;28;20233;-62
2023/10/09 06:18:53;;;;;;;;;;;;;;;7.59;67.50;100620.16;5106561;28;20501;-61
2023/10/09 06:21:39;;;;;;;0.50;0.50;;;;;;;7.58;67.29;100611.53;5106455;28;19958;-62
2023/10/09 06:26:33;;;;;;;0.60;0.60;;;;;;;7.61;67.70;100610.69;5111339;22;20052;-68
2023/10/09 06:29:17;;;;;;;1.05;0.95;;;;;;;7.63;67.90;100607.28;5105880;28;20035;-66
2023/10/09 06:31:57;;;;;;;1.15;0.98;;;;;;;7.71;67.85;100612.50;5088058;28;20032;-66
2023/10/09 06:34:32;;;;;;;1.75;1.30;;;;;;;7.73;67.86;100610.75;5106132;28;20475;-67
2023/10/09 06:40:22;;;;;;;0.90;0.70;;;;;;;7.90;67.94;100608.31;5106182;28;20083;-67
2023/10/09 06:45:16;;;;;;;0.98;0.88;;;;;;;8.16;68.51;100620.50;5106098;28;20028;-66
2023/10/09 06:47:55;;;;;;;0.93;0.90;;;;;;;8.34;68.42;100612.84;5105976;28;20490;-67
2023/10/09 06:52:57;;;;;;;1.42;0.95;;;;;;;8.70;69.33;100608.69;5106088;28;20016;-67
2023/10/09 06:55:48;;;;;;;1.02;0.60;;;;;;;8.91;69.29;100601.81;5105861;28;20115;-67
2023/10/09 06:58:22;;;;;;;10.50;0.93;;;;;;;9.14;69.77;100606.13;5106184;28;20020;-67
2023/10/09 07:00:54;;;;;;;3.22;1.35;;;;;;;9.45;69.34;100615.66;5087506;28;20034;-67
2023/10/09 07:03:29;;;;;;;0.77;0.77;;;;;;;9.64;69.58;100600.94;5105800;28;20135;-66
2023/10/09 07:06:09;;;;;;;1.35;1.13;;;;;;;9.94;69.43;100593.09;5105996;28;20020;-67
2023/10/09 07:08:37;;;;;;;1.13;1.02;;;;;;;10.34;69.08;100605.06;5105948;28;20031;-67
2023/10/09 07:11:21;;;;;;;1.35;0.70;;;;;;;10.73;68.89;100602.31;5105611;28;20020;-67
2023/10/09 07:13:54;;;;;;;9.50;1.50;;;;;;;11.10;68.46;100601.22;5087476;28;20030;-68
2023/10/09 07:16:38;;;;;;;0.60;0.60;;;;;;;11.36;67.81;100598.41;5105465;28;20073;-69
2023/10/09 07:21:54;;;;;;;1.25;0.90;;;;;;;12.16;66.16;100591.59;5105673;28;20062;-67
2023/10/09 07:24:24;;;;;;;0.75;0.65;;;;;;;12.68;67.29;100592.63;5087075;28;20027;-68
2023/10/09 07:26:52;;;;;;;0.52;0.52;;;;;;;13.18;65.78;100597.06;5105520;28;20024;-68
2023/10/09 07:29:21;;;;;;;0.95;0.80;;;;;;;13.55;65.21;100597.38;5105182;28;20028;-68
2023/10/09 07:31:57;;;;;;;1.17;0.52;;;;;;;13.86;64.97;100604.66;5105394;28;20020;-68
2023/10/09 07:34:52;;;;;;;0.70;0.57;;;;;;;14.23;64.71;100601.28;5105333;28;20024;-68
2023/10/09 07:37:22;;;;;;;3.13;0.70;;;;;;;14.62;63.56;100603.09;5087061;28;20024;-68
2023/10/09 07:39:57;;;;;;;0.90;0.60;;;;;;;14.88;64.59;100608.66;5105308;28;20035;-68
2023/10/09 07:42:33;;;;;;;2.10;0.90;;;;;;;14.69;63.58;100601.22;5105454;28;20023;-67
2023/10/09 07:45:11;;;;;;;0.40;0.40;;;;;;;14.82;63.75;100617.50;5087090;28;20035;-67
2023/10/09 07:48:00;;;;;;;0.50;0.50;;;;;;;14.78;62.39;100615.81;5110070;22;20028;-62
2023/10/09 07:50:48;;;;;;;1.05;0.75;;;;;;;14.81;63.41;100613.16;5119630;22;20059;-62
2023/10/09 07:53:14;;;;;;;1.58;0.90;;;;;;;15.31;64.04;100608.50;5083159;23;20052;-68
2023/10/09 07:55:45;;;;;;;1.13;0.68;;;;;;;15.99;62.31;100621.59;5084853;28;20024;-68
2023/10/09 07:58:11;;;;;;;0.60;0.50;;;;;;;16.38;61.02;100611.78;5084926;28;20016;-67
2023/10/09 08:01:05;;;;;;;1.27;0.88;;;;;;;16.53;60.71;100606.09;5084849;28;20050;-68
2023/10/09 08:03:29;;;;;;;0.50;0.50;;;;;;;17.16;59.40;100602.41;5084417;28;20047;-67
2023/10/09 08:06:06;;;;;;;;;;;;;;;18.06;57.46;100610.72;5085386;28;20040;-68
2023/10/09 08:14:00;;;;;;;0.65;0.57;;;;;;;19.82;48.46;100597.66;5084962;28;20055;-69
2023/10/09 08:16:36;;;;;;;1.23;0.60;;;;;;;19.58;47.57;100603.09;5092038;23;20144;-61
2023/10/09 08:19:32;;;;;;;1.08;0.73;;;;;;;18.95;48.61;100607.38;5084282;28;20035;-63
2023/10/09 08:24:42;;;;;;;0.63;0.40;;;;;;;19.80;45.64;100617.94;5084570;28;20094;-63
2023/10/09 08:30:12;;;;;;;1.45;0.55;;;;;;;20.27;45.34;100615.91;5084330;28;20023;-63
2023/10/09 08:32:38;;;;;;;0.65;0.50;;;;;;;20.36;45.84;100614.63;5069593;28;20021;-63
2023/10/09 08:35:18;;;;;;;0.75;0.52;;;;;;;20.57;44.22;100612.75;5088380;28;20074;-63
2023/10/09 08:37:47;;;;;;;0.30;0.30;;;;;;;20.51;43.91;100608.63;5088188;28;20020;-63
2023/10/09 08:40:13;;;;;;;0.75;0.40;;;;;;;20.49;44.88;100621.03;5088083;28;20021;-63
2023/10/09 08:42:38;;;;;;;1.33;0.65;;;;;;;20.46;45.54;100607.13;5070221;28;20024;-63
2023/10/09 08:45:05;;;;;;;0.30;0.30;;;;;;;20.90;43.68;100605.94;5088165;28;20028;-62
2023/10/09 08:47:32;;;;;;;0.50;0.40;;;;;;;20.80;42.67;100610.78;5087815;28;20025;-62
2023/10/09 08:49:58;;;;;;;1.40;0.65;;;;;;;19.98;42.58;100615.41;5087776;28;20024;-62
2023/10/09 08:52:24;;;;;;;0.35;0.35;;;;;;;19.05;44.86;100605.25;5087823;28;20050;-63
2023/10/09 08:54:50;;;;;;;0.47;0.45;;;;;;;18.63;46.21;100609.50;5088063;28;20029;-63
2023/10/09 08:57:18;;;;;;;0.40;0.35;;;;;;;18.97;47.04;100615.22;5087976;28;20038;-63
2023/10/09 08:59:44;;;;;;;0.80;0.50;;;;;;;19.48;45.67;100610.50;5087729;28;20020;-62
2023/10/09 09:02:11;;;;;;;2.15;0.50;;;;;;;19.54;45.07;100615.53;5087589;28;20017;-62
2023/10/09 09:04:45;;;;;;;6.95;1.08;;;;;;;19.02;45.30;100610.63;5087550;28;20028;-62
2023/10/09 09:07:39;;;;;;;0.60;0.50;;;;;;;18.93;44.61;100611.88;5087809;28;20024;-63
2023/10/09 09:10:17;;;;;;;2.47;0.60;;;;;;;19.18;43.44;100618.78;5087462;28;20028;-63
2023/10/09 09:12:43;;;;;;;0.35;0.30;;;;;;;19.49;43.96;100614.84;5087651;28;20027;-63
2023/10/09 09:15:19;;;;;;;0.35;0.32;;;;;;;19.90;42.22;100619.25;5087446;28;20025;-63
2023/10/09 09:17:45;;;;;;;1.75;0.73;;;;;;;20.45;42.08;100614.19;5086930;28;20044;-63
2023/10/09 09:20:30;;;;;;;0.40;0.30;;;;;;;20.89;40.65;100613.00;5087160;28;20028;-62
2023/10/09 09:22:58;;;;;;;0.30;0.30;;;;;;;20.88;40.92;100606.00;5087630;28;20032;-62
2023/10/09 09:25:25;;;;;;;0.38;0.28;;;;;;;21.24;41.78;100617.50;5087300;28;20390;-62
2023/10/09 09:27:55;;;;;;;0.75;0.60;;;;;;;22.10;41.40;100615.78;5087474;28;20052;-63
2023/10/09 09:30:33;;;;;;;0.22;0.22;;;;;;;22.86;40.17;100602.81;5087390;28;20024;-62
2023/10/09 09:33:16;;;;;;;0.45;0.40;;;;;;;23.45;39.45;100595.91;5087114;28;20130;-62
2023/10/09 09:36:02;;;;;;;1.20;0.40;;;;;;;22.96;37.41;100611.09;5087100;28;20029;-62
2023/10/09 09:38:41;;;;;;;0.75;0.30;;;;;;;21.96;38.81;100635.03;5069037;28;20032;-62
2023/10/09 09:41:08;;;;;;;0.88;0.40;;;;;;;20.75;40.28;100637.41;5086940;28;20017;-62
2023/10/09 09:43:35;;;;;;;0.73;0.52;;;;;;;19.73;41.50;100629.69;5086785;28;20032;-62
2023/10/09 09:46:07;;;;;;;1.20;0.50;;;;;;;18.82;42.37;100631.56;5087095;28;20020;-62
2023/10/09 09:48:39;;;;;;;0.43;0.40;;;;;;;18.08;43.07;100651.78;5086630;28;20029;-62
2023/10/09 09:51:08;;;;;;;0.40;0.40;;;;;;;17.62;43.84;100651.63;5069660;28;20020;-62
2023/10/09 09:53:34;;;;;;;0.55;0.45;;;;;;;17.14;44.26;100642.72;5086723;28;20032;-64
2023/10/09 09:56:02;;;;;;;0.22;0.22;;;;;;;16.79;44.40;100641.13;5086667;28;20039;-62
2023/10/09 09:58:32;;;;;;;0.28;0.28;;;;;;;16.47;44.96;100642.94;5086458;28;20031;-62
2023/10/09 10:01:15;;;;;;;4.47;0.60;;;;;;;16.17;45.32;100640.31;5086413;28;20029;-62
2023/10/09 10:03:46;;;;;;;0.60;0.50;;;;;;;15.99;45.68;100642.53;5086449;28;20086;-62
2023/10/09 10:06:12;;;;;;;1.27;0.88;;;;;;;15.89;45.75;100641.06;5086602;28;20038;-63
2023/10/09 10:08:40;;;;;;;0.55;0.50;;;;;;;15.89;46.42;100633.19;5086539;28;20020;-62
2023/10/09 10:11:13;;;;;;;0.70;0.40;;;;;;;16.07;45.47;100627.47;5086148;28;20080;-62
2023/10/09 10:13:42;;;;;;;1.45;0.63;;;;;;;16.27;45.85;100636.53;5086329;28;20032;-61
2023/10/09 10:21:52;;;;;;;1.17;0.50;;;;;;;16.95;45.62;100646.75;5086038;28;20020;-62
2023/10/09 10:24:51;;;;;;;0.32;0.32;;;;;;;16.61;45.41;100658.28;5068172;28;20024;-62
2023/10/09 10:27:24;;;;;;;0.40;0.40;;;;;;;16.16;45.80;100665.66;5085261;28;20033;-62
2023/10/09 10:30:11;;;;;;;0.52;0.30;;;;;;;15.67;46.35;100662.56;5086090;28;20111;-62
2023/10/09 10:32:51;;;;;;;0.98;0.52;;;;;;;15.20;46.72;100671.53;5086027;28;20035;-63
2023/10/09 10:35:32;;;;;;;0.30;0.30;;;;;;;14.94;47.11;100670.38;5086099;28;20020;-61
2023/10/09 10:38:11;;;;;;;9.23;0.75;;;;;;;14.93;47.78;100661.69;5085808;28;20028;-63
2023/10/09 10:40:45;;;;;;;0.45;0.32;;;;;;;15.18;48.13;100668.09;5067863;28;20084;-62
2023/10/09 10:43:33;;;;;;;0.30;0.30;;;;;;;15.46;47.46;100672.69;5085873;28;20051;-63
2023/10/09 10:46:23;;;;;;;1.00;0.68;;;;;;;15.64;47.40;100668.72;5085633;28;20420;-62
2023/10/09 10:48:58;;;;;;;2.95;0.52;;;;;;;15.68;47.30;100661.66;5085469;28;20035;-62
2023/10/09 10:51:24;;;;;;;0.40;0.32;;;;;;;15.60;47.58;100654.00;5085771;28;20100;-62
2023/10/09 10:53:56;;;;;;;0.43;0.30;;;;;;;15.64;46.79;100657.41;5084984;28;20024;-62
2023/10/09 10:56:34;;;;;;;0.32;0.30;;;;;;;16.06;47.33;100654.59;5085643;28;20426;-62
2023/10/09 11:17:59;;;;;;;0.80;0.50;;;;;;;16.84;43.92;100641.84;5084922;28;20036;-63
2023/10/09 11:20:26;;;;;;;0.30;0.30;;;;;;;16.13;45.10;100657.03;5085278;28;20032;-63
2023/10/09 11:25:50;;;;;;;0.40;0.40;;;;;;;15.39;46.53;100639.69;5085352;28;20025;-63
2023/10/09 11:28:29;;;;;;;1.10;0.50;;;;;;;15.19;47.20;100643.69;5084550;28;20032;-62
2023/10/09 11:31:11;;;;;;;0.90;0.50;;;;;;;15.12;47.29;100645.56;5084823;28;20239;-62
2023/10/09 11:33:53;;;;;;;0.40;0.40;;;;;;;14.92;47.50;100641.66;5084997;28;20035;-62
2023/10/09 11:36:32;;;;;;;0.63;0.57;;;;;;;14.75;47.72;100637.66;5085045;28;20039;-63
2023/10/09 11:39:17;;;;;;;0.80;0.52;;;;;;;14.56;47.85;100639.81;5084825;28;20028;-62
2023/10/09 11:41:44;;;;;;;0.50;0.30;;;;;;;14.48;48.32;100639.09;5084880;28;20020;-62
2023/10/09 11:44:23;;;;;;;1.27;0.55;;;;;;;14.63;48.62;100628.31;5084902;28;20079;-62
2023/10/09 11:46:58;;;;;;;0.30;0.30;;;;;;;14.81;48.12;100634.06;5084773;28;20028;-63
2023/10/09 11:49:44;;;;;;;0.38;0.38;;;;;;;14.97;48.29;100638.94;5084424;28;20033;-62
2023/10/09 11:54:35;;;;;;;0.68;0.50;;;;;;;15.53;48.19;100626.28;5084892;28;20024;-62
2023/10/09 11:57:04;;;;;;;0.40;0.40;;;;;;;15.55;47.71;100625.34;5066921;28;20095;-63
2023/10/09 11:59:39;;;;;;;0.77;0.50;;;;;;;15.44;47.64;100617.78;5084793;28;20028;-62
2023/10/09 12:02:05;;;;;;;0.95;0.50;;;;;;;15.46;47.95;100621.19;5084631;28;20031;-62
2023/10/09 12:04:30;;;;;;;1.20;0.70;;;;;;;15.38;48.13;100620.56;5084428;28;20024;-62
2023/10/09 12:07:10;;;;;;;0.88;0.63;;;;;;;15.36;48.11;100612.75;5087102;28;20111;-62
2023/10/09 12:09:38;;;;;;;0.32;0.32;;;;;;;15.40;48.47;100615.28;5088675;28;20092;-62
2023/10/09 12:12:05;;;;;;;1.20;0.52;;;;;;;15.40;47.92;100607.44;5088302;28;20020;-62
2023/10/09 12:14:33;;;;;;;0.55;0.50;;;;;;;15.13;47.09;100612.44;5088551;28;20381;-62
2023/10/09 12:17:05;;;;;;;1.50;0.70;;;;;;;14.83;47.75;100611.38;5088388;28;20550;-62
2023/10/09 12:19:35;;;;;;;0.85;0.50;;;;;;;14.74;48.23;100614.16;5088392;28;20056;-63
2023/10/09 12:22:03;;;;;;;1.67;0.50;;;;;;;14.72;48.44;100618.56;5088322;28;20019;-62
2023/10/09 12:24:30;;;;;;;0.73;0.40;;;;;;;14.59;48.23;100613.63;5088286;28;20028;-62
2023/10/09 12:26:55;;;;;;;2.28;0.57;;;;;;;14.60;48.88;100617.94;5088301;28;20040;-62
2023/10/09 12:29:20;;;;;;;0.45;0.40;;;;;;;14.60;48.59;100612.72;5087593;28;20016;-62
2023/10/09 12:31:46;;;;;;;0.50;0.50;;;;;;;14.52;48.63;100606.78;5087990;28;20050;-62
2023/10/09 12:34:16;;;;;;;1.98;0.60;;;;;;;14.44;48.51;100616.56;5087932;28;20023;-62
2023/10/09 12:36:49;;;;;;;0.40;0.40;;;;;;;14.24;48.62;100608.25;5088143;28;20084;-62
2023/10/09 12:39:18;;;;;;;0.93;0.60;;;;;;;14.14;48.54;100614.53;5088243;28;20021;-63
2023/10/09 12:41:46;;;;;;;0.82;0.45;;;;;;;14.17;49.15;100611.03;5088019;28;20016;-62
2023/10/09 12:44:14;;;;;;;0.50;0.30;;;;;;;14.19;49.08;100617.91;5088034;28;20028;-62
2023/10/09 12:46:51;;;;;;;0.40;0.40;;;;;;;14.13;48.97;100613.69;5087912;28;20024;-62
2023/10/09 12:49:26;;;;;;;0.47;0.43;;;;;;;13.87;48.88;100615.06;5087630;28;20031;-62
2023/10/09 12:51:52;;;;;;;0.82;0.50;;;;;;;13.79;49.10;100611.72;5087613;28;20024;-62
2023/10/09 12:54:20;;;;;;;0.55;0.40;;;;;;;13.74;49.36;100616.16;5087654;28;20036;-62
2023/10/09 12:56:48;;;;;;;1.38;0.45;;;;;;;13.62;49.47;100623.34;5087530;28;20082;-62
2023/10/09 12:59:14;;;;;;;0.63;0.52;;;;;;;13.54;49.54;100629.56;5087775;28;20048;-62
2023/10/09 13:01:43;;;;;;;3.42;0.43;;;;;;;13.49;49.85;100634.81;5087547;28;20484;-62
2023/10/09 13:04:16;;;;;;;1.27;0.60;;;;;;;13.37;50.10;100623.72;5087137;28;20055;-62
2023/10/09 13:06:45;;;;;;;1.20;0.40;;;;;;;13.30;49.98;100621.22;5087382;28;20484;-63
2023/10/09 13:09:42;;;;;;;0.40;0.40;;;;;;;13.24;50.07;100624.81;5087438;28;20024;-63
2023/10/09 13:12:07;;;;;;;0.50;0.50;;;;;;;13.21;49.94;100622.25;5087062;28;20052;-62
2023/10/09 13:14:33;;;;;;;0.50;0.50;;;;;;;13.13;50.02;100627.59;5087523;28;20024;-62
2023/10/09 13:16:59;;;;;;;0.38;0.38;;;;;;;13.07;50.36;100618.09;5086639;28;20087;-62
2023/10/09 13:19:25;;;;;;;2.85;0.68;;;;;;;13.04;50.35;100619.88;5087212;28;20025;-63
2023/10/09 13:21:50;;;;;;;0.43;0.38;;;;;;;12.76;50.62;100609.00;5087362;28;20028;-62
2023/10/09 13:24:16;;;;;;;1.65;0.60;;;;;;;12.67;50.71;100608.28;5068891;28;20035;-62
2023/10/09 13:26:46;;;;;;;0.80;0.70;;;;;;;12.59;50.99;100613.56;5069069;28;20050;-62
2023/10/09 13:29:13;;;;;;;1.00;0.52;;;;;;;12.50;51.04;100606.75;5087177;28;20025;-62
2023/10/09 13:31:46;;;;;;;0.40;0.40;;;;;;;12.42;51.23;100619.00;5087007;28;20032;-63
2023/10/09 13:34:14;;;;;;;1.27;0.70;;;;;;;12.38;51.12;100624.25;5086864;28;20031;-62
2023/10/09 13:36:49;;;;;;;1.63;0.50;;;;;;;12.31;51.17;100619.16;5087053;28;20028;-62
2023/10/09 13:39:24;;;;;;;0.70;0.60;;;;;;;12.26;51.36;100622.69;5086872;28;20028;-63
2023/10/09 13:41:58;;;;;;;0.75;0.55;;;;;;;12.24;51.56;100621.81;5086703;28;20046;-63
2023/10/09 13:44:30;;;;;;;0.30;0.30;;;;;;;12.21;52.06;100623.59;5086976;28;20076;-63
2023/10/09 13:46:57;;;;;;;2.17;0.68;;;;;;;12.20;51.74;100622.75;5094287;22;20090;-67
2023/10/09 13:49:22;;;;;;;0.90;0.77;;;;;;;12.20;51.59;100617.56;5109097;22;20037;-60
2023/10/09 13:51:49;;;;;;;0.50;0.50;;;;;;;12.15;51.71;100614.13;5109467;22;20063;-66
2023/10/09 13:54:28;;;;;;;0.65;0.50;;;;;;;12.12;51.93;100609.81;5106798;28;20034;-66